createdAt,value
2023-02-25T00:00:54.874Z,83
2023-02-25T00:05:55.078Z,82
2023-02-25T00:10:55.314Z,82
2023-02-25T00:15:54.498Z,82
2023-02-25T00:20:54.655Z,82
2023-02-25T00:25:54.930Z,82
2023-02-25T00:30:55.529Z,82
2023-02-25T00:35:54.924Z,82
2023-02-25T00:40:55.102Z,82
2023-02-25T00:45:54.410Z,82
2023-02-25T00:50:54.707Z,82
2023-02-25T00:55:54.905Z,81
2023-02-25T01:00:55.330Z,81
2023-02-25T01:05:54.725Z,81
2023-02-25T01:10:54.373Z,81
2023-02-25T01:15:54.688Z,80
2023-02-25T01:20:55.004Z,80
2023-02-25T01:25:55.230Z,79
2023-02-25T01:30:54.800Z,79
2023-02-25T01:35:55.172Z,79
2023-02-25T01:40:54.572Z,79
2023-02-25T01:45:54.871Z,79
2023-02-25T01:50:55.312Z,79
2023-02-25T01:55:54.710Z,79
2023-02-25T02:00:55.459Z,79
2023-02-25T02:05:54.855Z,79
2023-02-25T02:10:55.334Z,79
2023-02-25T02:15:54.645Z,79
2023-02-25T02:20:55.150Z,79
2023-02-25T02:25:54.662Z,79
2023-02-25T02:30:54.911Z,79
2023-02-25T02:35:55.107Z,79
2023-02-25T02:40:55.764Z,79
2023-02-25T02:45:55.164Z,79
2023-02-25T02:50:54.517Z,79
2023-02-25T02:55:54.695Z,79
2023-02-25T03:00:55.509Z,79
2023-02-25T03:05:54.604Z,79
2023-02-25T03:10:55.239Z,79
2023-02-25T03:15:54.440Z,79
2023-02-25T03:20:54.903Z,79
2023-02-25T03:25:55.043Z,79
2023-02-25T03:30:54.733Z,79
2023-02-25T03:35:54.593Z,79
2023-02-25T03:40:55.135Z,79
2023-02-25T03:45:54.670Z,79
2023-02-25T03:50:55.274Z,79
2023-02-25T03:55:54.773Z,79
2023-02-25T04:00:55.039Z,79
2023-02-25T04:05:54.617Z,79
2023-02-25T04:10:55.316Z,79
2023-02-25T04:15:54.566Z,79
2023-02-25T04:20:55.341Z,79
2023-02-25T04:25:54.481Z,79
2023-02-25T04:30:55.101Z,79
2023-02-25T04:35:55.324Z,80
2023-02-25T04:40:54.849Z,80
2023-02-25T04:45:55.044Z,80
2023-02-25T04:50:55.339Z,80
2023-02-25T04:55:55.229Z,81
2023-02-25T05:00:54.468Z,81
2023-02-25T05:05:54.656Z,81
2023-02-25T05:10:54.909Z,81
2023-02-25T05:15:55.156Z,81
2023-02-25T05:20:55.442Z,81
2023-02-25T05:25:54.855Z,81
2023-02-25T05:30:55.385Z,81
2023-02-25T05:35:54.672Z,81
2023-02-25T05:40:54.827Z,81
2023-02-25T05:45:55.055Z,82
2023-02-25T05:50:55.261Z,82
2023-02-25T05:55:54.534Z,81
2023-02-25T06:00:54.789Z,81
2023-02-25T06:05:55.126Z,81
2023-02-25T06:10:55.444Z,81
2023-02-25T06:15:54.555Z,81
2023-02-25T06:20:55.163Z,81
2023-02-25T06:25:55.419Z,81
2023-02-25T06:30:54.696Z,81
2023-02-25T06:35:54.706Z,82
2023-02-25T06:40:54.980Z,82
2023-02-25T06:45:55.350Z,83
2023-02-25T06:50:54.680Z,83
2023-02-25T06:55:54.926Z,83
2023-02-25T07:00:55.272Z,83
2023-02-25T07:05:55.350Z,83
2023-02-25T07:10:54.676Z,83
2023-02-25T07:15:55.092Z,84
2023-02-25T07:20:55.488Z,84
2023-02-25T07:25:54.665Z,84
2023-02-25T07:30:55.253Z,84
2023-02-25T07:35:54.539Z,85
2023-02-25T07:40:54.789Z,85
2023-02-25T07:45:55.060Z,85
2023-02-25T07:50:55.197Z,85
2023-02-25T07:55:55.542Z,85
2023-02-25T08:00:54.645Z,85
2023-02-25T08:05:54.819Z,85
2023-02-25T08:10:54.977Z,85
2023-02-25T08:15:55.191Z,84
2023-02-25T08:20:55.641Z,84
2023-02-25T08:25:54.938Z,83
2023-02-25T08:30:55.715Z,83
2023-02-25T08:35:54.866Z,81
2023-02-25T08:40:54.773Z,81
2023-02-25T08:45:54.914Z,79
2023-02-25T08:50:55.008Z,79
2023-02-25T08:55:55.177Z,77
2023-02-25T09:00:55.781Z,77
2023-02-25T09:05:55.057Z,77
2023-02-25T09:10:54.730Z,77
2023-02-25T09:15:55.007Z,76
2023-02-25T09:20:55.145Z,76
2023-02-25T09:25:55.323Z,76
2023-02-25T09:30:54.970Z,76
2023-02-25T09:35:55.398Z,77
2023-02-25T09:40:55.469Z,77
2023-02-25T09:45:54.857Z,77
2023-02-25T09:50:54.935Z,77
2023-02-25T09:55:55.139Z,76
2023-02-25T10:00:55.831Z,76
2023-02-25T10:05:55.453Z,75
2023-02-25T10:10:54.819Z,75
2023-02-25T10:15:55.083Z,73
2023-02-25T10:20:55.322Z,73
2023-02-25T10:25:55.519Z,72
2023-02-25T10:30:55.099Z,72
2023-02-25T10:35:55.407Z,71
2023-02-25T10:40:54.727Z,71
2023-02-25T10:45:54.933Z,70
2023-02-25T10:50:55.555Z,70
2023-02-25T10:55:55.116Z,70
2023-02-25T11:00:55.635Z,70
2023-02-25T11:05:54.821Z,70
2023-02-25T11:10:55.129Z,70
2023-02-25T11:15:55.371Z,66
2023-02-25T11:20:55.680Z,66
2023-02-25T11:25:54.889Z,67
2023-02-25T11:30:55.406Z,67
2023-02-25T11:35:54.648Z,64
2023-02-25T11:40:55.154Z,64
2023-02-25T11:45:55.361Z,61
2023-02-25T11:50:55.598Z,61
2023-02-25T11:55:54.884Z,61
2023-02-25T12:00:55.124Z,61
2023-02-25T12:05:55.516Z,62
2023-02-25T12:10:54.875Z,62
2023-02-25T12:15:55.310Z,65
2023-02-25T12:20:55.652Z,65
2023-02-25T12:25:55.003Z,66
2023-02-25T12:30:55.534Z,66
2023-02-25T12:35:54.802Z,62
2023-02-25T12:40:54.983Z,62
2023-02-25T12:45:55.270Z,60
2023-02-25T12:50:55.498Z,60
2023-02-25T12:55:55.707Z,60
2023-02-25T13:00:54.948Z,60
2023-02-25T13:05:55.187Z,60
2023-02-25T13:10:55.385Z,60
2023-02-25T13:15:55.625Z,58
2023-02-25T13:20:54.804Z,58
2023-02-25T13:25:55.085Z,58
2023-02-25T13:30:55.329Z,58
2023-02-25T13:35:55.557Z,56
2023-02-25T13:40:55.370Z,56
2023-02-25T13:45:55.646Z,58
2023-02-25T13:50:54.809Z,58
2023-02-25T13:55:55.014Z,56
2023-02-25T14:00:55.382Z,56
2023-02-25T14:05:54.993Z,54
2023-02-25T14:10:55.257Z,54
2023-02-25T14:15:55.746Z,55
2023-02-25T14:20:55.030Z,55
2023-02-25T14:25:55.325Z,55
2023-02-25T14:30:55.833Z,55
2023-02-25T14:35:55.184Z,55
2023-02-25T14:40:55.854Z,55
2023-02-25T14:45:55.233Z,55
2023-02-25T14:50:55.498Z,55
2023-02-25T14:55:55.768Z,54
2023-02-25T15:00:55.501Z,54
2023-02-25T15:05:55.401Z,57
2023-02-25T15:10:54.945Z,57
2023-02-25T15:15:55.364Z,61
2023-02-25T15:20:55.413Z,61
2023-02-25T15:25:55.093Z,62
2023-02-25T15:30:55.196Z,62
2023-02-25T15:35:55.741Z,67
2023-02-25T15:40:55.680Z,67
2023-02-25T15:45:56.218Z,72
2023-02-25T15:50:55.473Z,72
2023-02-25T15:55:55.046Z,72
2023-02-25T16:00:55.465Z,72
2023-02-25T16:05:55.285Z,71
2023-02-25T16:10:55.499Z,71
2023-02-25T16:15:55.038Z,71
2023-02-25T16:20:55.489Z,71
2023-02-25T16:25:55.726Z,72
2023-02-25T16:30:55.221Z,72
2023-02-25T16:36:08.169Z,73
2023-02-25T16:40:55.519Z,73
2023-02-25T16:45:55.963Z,72
2023-02-25T16:50:55.128Z,72
2023-02-25T16:55:55.338Z,69
2023-02-25T17:00:55.681Z,69
2023-02-25T17:05:54.985Z,67
2023-02-25T17:10:55.263Z,67
2023-02-25T17:15:55.559Z,65
2023-02-25T17:20:55.700Z,65
2023-02-25T17:25:54.927Z,66
2023-02-25T17:30:55.505Z,66
2023-02-25T17:35:55.718Z,67
2023-02-25T17:40:56.000Z,67
2023-02-25T17:45:55.552Z,68
2023-02-25T17:50:55.754Z,68
2023-02-25T17:55:55.096Z,64
2023-02-25T18:00:55.231Z,64
2023-02-25T18:05:55.315Z,63
2023-02-25T18:10:55.532Z,63
2023-02-25T18:16:00.218Z,64
2023-02-25T18:20:55.395Z,64
2023-02-25T18:25:55.542Z,66
2023-02-25T18:30:56.021Z,66
2023-02-25T18:35:57.717Z,68
2023-02-25T18:40:55.053Z,68
2023-02-25T18:45:55.268Z,69
2023-02-25T18:50:55.462Z,69
2023-02-25T18:55:55.612Z,70
2023-02-25T19:00:55.875Z,70
2023-02-25T19:05:55.060Z,70
2023-02-25T19:10:55.165Z,70
2023-02-25T19:15:55.316Z,70
2023-02-25T19:20:55.475Z,70
2023-02-25T19:25:55.527Z,71
2023-02-25T19:30:55.138Z,71
2023-02-25T19:35:55.329Z,73
2023-02-25T19:40:55.927Z,73
2023-02-25T19:45:55.125Z,73
2023-02-25T19:50:55.313Z,73
2023-02-25T19:55:55.384Z,74
2023-02-25T20:00:55.626Z,74
2023-02-25T20:05:55.779Z,75
2023-02-25T20:10:55.967Z,75
2023-02-25T20:15:55.196Z,76
2023-02-25T20:20:55.377Z,76
2023-02-25T20:25:55.551Z,78
2023-02-25T20:30:55.809Z,78
2023-02-25T20:35:55.111Z,79
2023-02-25T20:40:56.002Z,79
2023-02-25T20:45:55.445Z,80
2023-02-25T20:50:55.660Z,80
2023-02-25T20:55:56.027Z,81
2023-02-25T21:00:55.377Z,81
2023-02-25T21:05:55.593Z,82
2023-02-25T21:10:55.830Z,82
2023-02-25T21:15:55.702Z,82
2023-02-25T21:20:55.698Z,82
2023-02-25T21:25:55.901Z,82
2023-02-25T21:30:55.187Z,82
2023-02-25T21:35:55.466Z,82
2023-02-25T21:40:55.916Z,82
2023-02-25T21:45:55.596Z,82
2023-02-25T21:50:56.036Z,82
2023-02-25T21:55:55.601Z,82
2023-02-25T22:00:55.268Z,82
2023-02-25T22:05:56.031Z,82
2023-02-25T22:10:55.590Z,82
2023-02-25T22:15:55.312Z,82
2023-02-25T22:45:55.996Z,87
2023-02-25T22:50:55.288Z,87
2023-02-25T22:55:55.482Z,87
2023-02-25T23:00:55.698Z,87
2023-02-25T23:05:55.929Z,87
2023-02-25T23:10:55.204Z,87
2023-02-25T23:15:55.490Z,87
2023-02-25T23:20:55.698Z,87
2023-02-25T23:25:55.986Z,87
2023-02-25T23:30:55.337Z,87
2023-02-25T23:35:55.431Z,87
2023-02-25T23:40:55.835Z,87
2023-02-25T23:45:56.272Z,87
2023-02-25T23:55:56.076Z,87
